FOOLHKJK

Guest
Details From FOOL - Leon M Ba
To HKJK - Nairobi Jomo Kanyatta Intl
Flight Number -
Tags Generated
Created
Modified
Stats Distance 1,656 nm / 3,066 km
Max Altitude 0 ft / 0 m
Waypoints 3
Social Downloads 1
Likes 0
Share VATSIM

Download

Looking for another format? Having issues loading an existing format? Contact us
Advertisement - Login to hide

Notes

Generated

Route

FOOL R1659 HKJK

ID Type Via Altitude Latitude Longitude Leg Dist Tot Dist Heading (true) Name
O FOOL APT - 0 ft / 0 m 0.47081˚ 9.40635˚ - 0 nm - -
R1659 FIX - 0 ft / 0 m -1.32759˚ 36.91636˚ 1655 nm 1655 nm 94° / 94° -
O HKJK APT - 0 ft / 0 m -1.32774˚ 36.91612˚ 0 nm 1655 nm 238° / 238° -

Altitude Profile

Advertisement - Login to hide

Weather


0- 5 10 15 20 25 30 35+ Temperature / ° C

Clouds and Precipitation
Forecast for 2017-12-12 12:00 UTC. Updated an hour ago

Ground ~20,000 ft ~40,000 ft Winds

FOOL

Details ICAO FOOL (LBV)
Name Leon M Ba
Region Gabon
Timezone Africa/Libreville (UTC+1.0)
Stats Elevation 39 ft / 12 m (AMSL)
Location 0.458616° 9.412250°
Runways 1
Magnetic Variation 1.937° W

METAR

Not found

TAF

TAF FOOL 120500Z 1206/1312 20006KT 9999 SCT012 BKN030 PROB30 TEMPO 1206/1209 4000 TSRA BKN008 FEW016CB BKN026 TEMPO 1214/1220 TS BKN012 FEW020CB

Decode

Departure Runways

ID Width Length Bearing (true) Bearing (mag) Surface Threshold Offset Overrun Length
16 148 ft / 45 m 9,889 ft / 3,014 m 154.19° 156.13° Asphalt 0 ft / 0 m 192 ft / 59 m
34 148 ft / 45 m 9,889 ft / 3,014 m 334.19° 336.13° Asphalt 0 ft / 0 m 209 ft / 64 m

HKJK

Details ICAO HKJK (NBO)
Name Nairobi Jomo Kanyatta Intl
Region Kenya
Timezone Africa/Nairobi (UTC+3.0)
Stats Elevation 5,330 ft / 1,625 m (AMSL)
Location -1.317073° 36.930757°
Runways 1
Magnetic Variation 0.575° E

METAR

HKJK 121030Z 06012KT 9999 FEW026 25/12 Q1021 NOSIG

Decode

TAF

TAF HKJK 120500Z 1206/1312 05010KT 9999 FEW028 SCT230 BECMG 1220/1223 36005KT CAVOK BECMG 1308/1311 05010KT FEW027

Decode

Destination Runways

ID Width Length Bearing (true) Bearing (mag) Surface Threshold Offset Overrun Length
06 148 ft / 45 m 13,215 ft / 4,028 m 53.90° 53.32° Asphalt 0 ft / 0 m 194 ft / 59 m
24 148 ft / 45 m 13,215 ft / 4,028 m 233.90° 233.32° Asphalt 0 ft / 0 m 197 ft / 60 m

Approach Navaids

Runway Type Ident Frequency Range Bearing (true) Bearing (mag) Slope Elevation
06 Localiser INL 110.30 MHz 18 nm / 33 km 53.84° 53.26° - 5,278 ft / 1,609 m (AMSL)
06 Glidescope INL 110.30 MHz 10 nm / 19 km 53.90° 53.32° 3.00° 5,343 ft / 1,629 m (AMSL)

Popular Alternatives